Time;durP1;ratioP1;P1;durP2;ratioP2;P2;SDS_P1;SDS_P2;PMS_P1;PMS_P2;Temp;Humidity;BMP_temperature;BMP_pressure;BME280_temperature;BME280_humidity;BME280_pressure;Samples;Min_cycle;Max_cycle;Signal;HPM_P1;HPM_P2
2021/06/09 00:01:43;;;;;;;5.32;3.92;;;;;24.60;102089.00;;;;5104823;28;20240;-76
2021/06/09 00:04:10;;;;;;;4.40;3.70;;;;;24.60;102092.00;;;;5094693;28;20194;-77
2021/06/09 00:06:38;;;;;;;4.07;3.58;;;;;24.60;102085.00;;;;5105548;28;20710;-77
2021/06/09 00:09:05;;;;;;;4.47;3.13;;;;;24.60;102089.00;;;;5108528;28;20193;-77
2021/06/09 00:11:33;;;;;;;6.18;3.80;;;;;24.60;102084.00;;;;5107100;28;20223;-76
2021/06/09 00:14:01;;;;;;;4.32;3.42;;;;;24.60;102084.00;;;;5092791;28;20190;-77
2021/06/09 00:16:28;;;;;;;4.80;3.78;;;;;24.50;102087.00;;;;5107184;28;20198;-77
2021/06/09 00:18:55;;;;;;;4.68;4.00;;;;;24.50;102088.00;;;;5103010;28;20202;-77
2021/06/09 00:21:22;;;;;;;5.38;4.47;;;;;24.50;102091.00;;;;5095190;28;20576;-76
2021/06/09 00:23:49;;;;;;;4.63;4.13;;;;;24.50;102093.00;;;;5106947;28;20186;-76
2021/06/09 00:26:18;;;;;;;5.30;3.65;;;;;24.50;102091.00;;;;5108295;28;20271;-76
2021/06/09 00:28:47;;;;;;;4.72;4.07;;;;;24.40;102088.00;;;;5108320;28;20667;-76
2021/06/09 00:31:14;;;;;;;4.38;3.97;;;;;24.40;102092.00;;;;5108654;28;20667;-77
2021/06/09 00:33:41;;;;;;;4.75;3.83;;;;;24.40;102093.00;;;;5106490;28;20648;-77
2021/06/09 00:36:09;;;;;;;4.90;4.07;;;;;24.40;102096.00;;;;5102104;28;20197;-76
2021/06/09 00:38:35;;;;;;;4.97;4.07;;;;;24.30;102097.00;;;;5108778;28;20193;-77
2021/06/09 00:41:03;;;;;;;5.53;4.22;;;;;24.30;102096.00;;;;5108724;28;20221;-77
2021/06/09 00:43:34;;;;;;;4.63;4.22;;;;;24.30;102097.00;;;;5109087;28;20201;-77
2021/06/09 00:46:04;;;;;;;5.00;4.05;;;;;24.30;102093.00;;;;5099172;28;20224;-76
2021/06/09 00:48:32;;;;;;;4.13;3.72;;;;;24.20;102098.00;;;;5109004;28;20271;-77
2021/06/09 00:51:02;;;;;;;6.97;4.38;;;;;24.20;102091.00;;;;5107855;28;20227;-76
2021/06/09 00:53:32;;;;;;;6.97;3.92;;;;;24.20;102094.00;;;;5108516;28;20202;-77
2021/06/09 00:56:00;;;;;;;7.15;4.97;;;;;24.20;102099.00;;;;5109020;28;20732;-77
2021/06/09 00:58:28;;;;;;;6.22;4.22;;;;;24.20;102096.00;;;;5108920;28;20198;-77
2021/06/09 01:00:55;;;;;;;4.32;3.65;;;;;24.20;102096.00;;;;5107476;28;20194;-77
2021/06/09 01:03:24;;;;;;;5.10;4.60;;;;;24.20;102097.00;;;;5108532;28;20205;-77
2021/06/09 01:05:51;;;;;;;4.38;3.90;;;;;24.10;102095.00;;;;5091606;28;20221;-76
2021/06/09 01:08:18;;;;;;;4.30;3.63;;;;;24.10;102093.00;;;;5091641;28;20202;-76
2021/06/09 01:10:45;;;;;;;5.97;4.40;;;;;24.10;102091.00;;;;5109556;28;20201;-77
2021/06/09 01:13:12;;;;;;;4.40;3.95;;;;;24.10;102085.00;;;;5100085;28;20198;-76
2021/06/09 01:15:40;;;;;;;4.93;4.43;;;;;24.10;102085.00;;;;5110152;28;20582;-77
2021/06/09 01:18:08;;;;;;;7.10;4.32;;;;;24.10;102083.00;;;;5110803;28;20647;-77
2021/06/09 01:20:36;;;;;;;4.63;4.03;;;;;24.00;102086.00;;;;5112142;28;20618;-77
2021/06/09 01:23:05;;;;;;;4.78;3.78;;;;;24.00;102080.00;;;;5110640;28;20201;-77
2021/06/09 01:25:33;;;;;;;5.72;4.05;;;;;24.00;102081.00;;;;5095922;28;20232;-77
2021/06/09 01:28:00;;;;;;;3.88;3.53;;;;;24.00;102079.00;;;;5109137;28;20278;-77
2021/06/09 01:30:27;;;;;;;5.55;4.18;;;;;24.00;102083.00;;;;5107153;28;20205;-77
2021/06/09 01:32:54;;;;;;;5.65;4.32;;;;;24.00;102081.00;;;;5111858;28;20635;-77
2021/06/09 01:35:21;;;;;;;5.38;3.83;;;;;23.90;102080.00;;;;5102627;28;20610;-77
2021/06/09 01:37:48;;;;;;;10.15;4.72;;;;;23.90;102083.00;;;;5111242;28;20301;-77
2021/06/09 01:40:19;;;;;;;4.75;4.25;;;;;23.80;102088.00;;;;5111740;28;20209;-77
2021/06/09 01:42:47;;;;;;;4.18;3.78;;;;;23.90;102087.00;;;;5111688;28;20206;-77
2021/06/09 01:45:16;;;;;;;4.75;4.22;;;;;23.80;102085.00;;;;5094953;28;20624;-77
2021/06/09 01:47:43;;;;;;;4.95;4.30;;;;;23.80;102085.00;;;;5103082;28;20308;-77
2021/06/09 01:50:12;;;;;;;4.60;4.03;;;;;23.80;102089.00;;;;5094654;28;20203;-77
2021/06/09 01:52:41;;;;;;;5.50;3.63;;;;;23.70;102092.00;;;;5111118;28;20204;-77
2021/06/09 01:55:10;;;;;;;4.25;3.85;;;;;23.70;102084.00;;;;5106218;28;20202;-77
2021/06/09 01:57:38;;;;;;;3.72;3.40;;;;;23.70;102078.00;;;;5108963;28;20198;-76
2021/06/09 02:00:09;;;;;;;4.93;3.88;;;;;23.60;102079.00;;;;5111309;28;20198;-77
2021/06/09 02:02:37;;;;;;;4.57;3.55;;;;;23.60;102081.00;;;;5111663;28;20254;-76
2021/06/09 02:05:06;;;;;;;5.75;4.53;;;;;23.60;102078.00;;;;5096610;28;20588;-77
2021/06/09 02:07:36;;;;;;;4.95;4.45;;;;;23.50;102079.00;;;;5102959;28;20236;-77
2021/06/09 02:10:07;;;;;;;8.82;4.75;;;;;23.50;102088.00;;;;5110639;28;20290;-78
2021/06/09 02:12:34;;;;;;;4.78;4.22;;;;;23.50;102082.00;;;;5104383;28;20198;-76
2021/06/09 02:15:03;;;;;;;5.18;3.95;;;;;23.40;102080.00;;;;5090975;28;20210;-76
2021/06/09 02:17:29;;;;;;;5.60;4.97;;;;;23.40;102085.00;;;;5102805;28;20209;-75
2021/06/09 02:19:56;;;;;;;6.72;4.25;;;;;23.40;102080.00;;;;5110079;28;20205;-75
2021/06/09 02:22:23;;;;;;;4.38;3.97;;;;;23.30;102074.00;;;;5110265;28;20254;-75
2021/06/09 02:24:50;;;;;;;5.00;4.50;;;;;23.30;102080.00;;;;5109992;28;20193;-76
2021/06/09 02:27:17;;;;;;;5.53;4.03;;;;;23.20;102071.00;;;;5109417;28;20217;-76
2021/06/09 02:29:43;;;;;;;4.10;3.70;;;;;23.20;102075.00;;;;5110894;28;20205;-76
2021/06/09 02:32:16;;;;;;;5.32;4.75;;;;;23.10;102074.00;;;;5109755;28;20253;-76
2021/06/09 02:34:43;;;;;;;4.57;3.88;;;;;23.10;102065.00;;;;5108199;28;20275;-77
2021/06/09 02:37:11;;;;;;;6.25;4.05;;;;;23.10;102067.00;;;;5110038;28;20212;-77
2021/06/09 02:39:37;;;;;;;5.13;4.18;;;;;23.00;102064.00;;;;5109290;28;20659;-76
2021/06/09 02:42:05;;;;;;;6.75;3.83;;;;;23.00;102064.00;;;;5098169;28;20210;-76
2021/06/09 02:44:31;;;;;;;4.45;3.67;;;;;22.90;102062.00;;;;5104670;28;20202;-77
2021/06/09 02:47:01;;;;;;;5.80;4.00;;;;;22.90;102063.00;;;;5109861;28;20255;-77
2021/06/09 02:49:32;;;;;;;6.85;4.15;;;;;22.80;102060.00;;;;5110804;28;20193;-76
2021/06/09 02:52:07;;;;;;;4.95;4.05;;;;;22.80;102063.00;;;;5107505;28;20284;-76
2021/06/09 02:54:39;;;;;;;5.07;4.00;;;;;22.70;102061.00;;;;5107713;28;20192;-76
2021/06/09 02:57:18;;;;;;;5.43;3.75;;;;;22.70;102062.00;;;;5109836;28;20243;-77
2021/06/09 02:59:56;;;;;;;4.10;3.70;;;;;22.60;102062.00;;;;5110247;28;20198;-76
2021/06/09 03:02:32;;;;;;;5.30;3.78;;;;;22.60;102056.00;;;;5110071;28;20201;-76
2021/06/09 03:05:06;;;;;;;3.60;3.30;;;;;22.60;102054.00;;;;5109980;28;20193;-76
2021/06/09 03:07:39;;;;;;;6.63;4.20;;;;;22.60;102055.00;;;;5102000;28;20225;-76
2021/06/09 03:10:13;;;;;;;5.32;4.07;;;;;22.50;102050.00;;;;5109230;28;20189;-76
2021/06/09 03:12:45;;;;;;;3.85;3.45;;;;;22.50;102052.00;;;;5103773;28;20199;-77
2021/06/09 03:15:14;;;;;;;5.43;3.67;;;;;22.50;102058.00;;;;5102459;28;20193;-76
2021/06/09 03:17:52;;;;;;;5.38;3.58;;;;;22.40;102054.00;;;;5109632;28;20204;-76
2021/06/09 03:20:27;;;;;;;3.75;3.30;;;;;22.40;102048.00;;;;5109453;28;20205;-76
2021/06/09 03:23:02;;;;;;;3.92;3.53;;;;;22.30;102053.00;;;;5109366;28;20285;-76
2021/06/09 03:25:35;;;;;;;3.85;3.45;;;;;22.30;102049.00;;;;5109417;28;20223;-76
2021/06/09 03:28:15;;;;;;;3.95;3.28;;;;;22.30;102047.00;;;;5109071;28;20282;-77
2021/06/09 03:30:43;;;;;;;3.60;3.28;;;;;22.30;102051.00;;;;5108649;28;20208;-77
2021/06/09 03:33:12;;;;;;;4.05;3.65;;;;;22.30;102051.00;;;;5108864;28;20263;-76
2021/06/09 03:35:45;;;;;;;3.97;3.40;;;;;22.20;102050.00;;;;5103632;28;20190;-76
2021/06/09 03:38:21;;;;;;;3.97;3.22;;;;;22.20;102049.00;;;;5089401;28;20198;-76
2021/06/09 03:40:49;;;;;;;4.47;3.60;;;;;22.20;102044.00;;;;5089213;28;20205;-76
2021/06/09 03:43:19;;;;;;;3.85;3.50;;;;;22.20;102047.00;;;;5088158;28;20672;-77
2021/06/09 03:45:51;;;;;;;4.38;3.70;;;;;22.10;102045.00;;;;5108500;28;20197;-76
2021/06/09 03:48:19;;;;;;;3.38;3.08;;;;;22.10;102048.00;;;;5088562;28;20194;-76
2021/06/09 03:50:49;;;;;;;4.25;3.75;;;;;22.10;102041.00;;;;5091349;28;20201;-77
2021/06/09 03:53:17;;;;;;;5.93;3.80;;;;;22.10;102042.00;;;;5107614;28;20237;-76
2021/06/09 03:55:45;;;;;;;4.10;3.33;;;;;22.10;102039.00;;;;5109377;28;21228;-77
2021/06/09 03:58:16;;;;;;;4.28;3.35;;;;;22.00;102037.00;;;;5091315;28;20694;-77
2021/06/09 04:00:46;;;;;;;4.15;3.53;;;;;22.00;102036.00;;;;5088551;28;20282;-76
2021/06/09 04:03:13;;;;;;;3.72;3.42;;;;;22.00;102046.00;;;;5088165;28;20190;-77
2021/06/09 04:05:42;;;;;;;3.75;3.42;;;;;22.00;102040.00;;;;5104693;28;20197;-77
2021/06/09 04:08:13;;;;;;;3.80;3.22;;;;;22.00;102042.00;;;;5092404;28;20218;-77
2021/06/09 04:10:43;;;;;;;5.70;3.90;;;;;22.00;102038.00;;;;5088478;28;20664;-76
2021/06/09 04:13:10;;;;;;;3.75;3.20;;;;;22.00;102035.00;;;;5099277;28;20254;-76
2021/06/09 04:15:38;;;;;;;4.65;3.55;;;;;22.10;102035.00;;;;5108374;28;20201;-76
2021/06/09 04:18:07;;;;;;;3.80;3.40;;;;;22.10;102027.00;;;;5106527;28;20209;-77
2021/06/09 04:20:34;;;;;;;3.95;2.80;;;;;22.10;102032.00;;;;5107477;28;20208;-76
2021/06/09 04:23:02;;;;;;;4.63;3.65;;;;;22.10;102037.00;;;;5098274;28;20592;-76
2021/06/09 04:25:30;;;;;;;6.60;4.47;;;;;22.20;102033.00;;;;5088759;28;20201;-76
2021/06/09 04:27:58;;;;;;;4.88;4.47;;;;;22.20;102033.00;;;;5088254;28;20222;-77
2021/06/09 04:30:25;;;;;;;4.72;3.88;;;;;22.30;102031.00;;;;5089184;28;20625;-76
2021/06/09 04:32:54;;;;;;;6.05;4.63;;;;;22.30;102030.00;;;;5105285;28;20235;-76
2021/06/09 04:35:23;;;;;;;4.57;4.15;;;;;22.30;102038.00;;;;5105742;28;20196;-76
2021/06/09 04:37:50;;;;;;;6.55;4.20;;;;;22.40;102038.00;;;;5108016;28;20229;-76
2021/06/09 04:40:19;;;;;;;4.40;3.17;;;;;22.40;102039.00;;;;5108210;28;20642;-76
2021/06/09 04:42:49;;;;;;;3.78;3.38;;;;;22.50;102035.00;;;;5109057;28;20267;-76
2021/06/09 04:45:18;;;;;;;3.50;3.20;;;;;22.60;102042.00;;;;5111701;28;20208;-77
2021/06/09 04:47:46;;;;;;;7.15;3.95;;;;;22.60;102039.00;;;;5092833;28;20226;-77
2021/06/09 04:50:15;;;;;;;4.30;3.33;;;;;22.70;102044.00;;;;5099874;28;20194;-76
2021/06/09 04:52:42;;;;;;;3.55;3.17;;;;;22.80;102039.00;;;;5093722;28;20668;-77
2021/06/09 04:55:10;;;;;;;3.70;3.40;;;;;22.80;102043.00;;;;5091444;28;20473;-76
2021/06/09 04:57:37;;;;;;;3.60;3.15;;;;;22.90;102044.00;;;;5109148;28;20740;-76
2021/06/09 05:00:08;;;;;;;4.35;3.25;;;;;23.00;102039.00;;;;5109454;28;20270;-76
2021/06/09 05:02:36;;;;;;;3.50;3.20;;;;;23.10;102038.00;;;;5095619;28;20202;-77
2021/06/09 05:05:03;;;;;;;3.45;3.10;;;;;23.20;102038.00;;;;5098193;28;20202;-76
2021/06/09 05:07:30;;;;;;;4.00;3.28;;;;;23.20;102043.00;;;;5095394;28;20275;-77
2021/06/09 05:09:57;;;;;;;4.00;3.15;;;;;23.30;102044.00;;;;5103878;28;20970;-76
2021/06/09 05:12:28;;;;;;;3.45;3.05;;;;;23.40;102046.00;;;;5105101;28;20198;-76
2021/06/09 05:14:59;;;;;;;3.83;3.25;;;;;23.40;102039.00;;;;5108277;28;20314;-76
2021/06/09 05:17:30;;;;;;;4.88;4.40;;;;;23.50;102043.00;;;;5100070;28;20199;-76
2021/06/09 05:20:00;;;;;;;4.38;3.55;;;;;23.60;102046.00;;;;5107839;27;20202;-76
2021/06/09 05:22:32;;;;;;;4.03;3.03;;;;;23.60;102038.00;;;;5107204;28;20201;-76
2021/06/09 05:25:03;;;;;;;3.63;3.13;;;;;23.70;102050.00;;;;5103563;28;20723;-76
2021/06/09 05:27:32;;;;;;;5.40;3.08;;;;;23.80;102051.00;;;;5102791;28;20225;-77
2021/06/09 05:30:00;;;;;;;3.83;3.28;;;;;23.90;102053.00;;;;5107220;28;20319;-77
2021/06/09 05:32:29;;;;;;;7.25;4.80;;;;;23.90;102053.00;;;;5108323;28;20280;-77
2021/06/09 05:34:58;;;;;;;5.47;4.97;;;;;24.00;102058.00;;;;5102186;28;20221;-76
2021/06/09 05:37:25;;;;;;;6.35;5.65;;;;;24.10;102049.00;;;;5104350;28;20190;-76
2021/06/09 05:39:57;;;;;;;7.82;6.28;;;;;24.10;102047.00;;;;5109123;28;20205;-76
2021/06/09 05:42:25;;;;;;;7.00;6.22;;;;;24.20;102055.00;;;;5110084;28;20210;-76
2021/06/09 05:44:54;;;;;;;9.00;6.45;;;;;24.30;102056.00;;;;5111954;28;20202;-77
2021/06/09 05:47:21;;;;;;;7.70;6.85;;;;;24.40;102056.00;;;;5110497;28;20783;-77
2021/06/09 05:50:03;;;;;;;7.13;6.47;;;;;24.40;102053.00;;;;5108707;27;20345;-76
2021/06/09 05:52:30;;;;;;;8.15;7.00;;;;;24.50;102052.00;;;;5107469;28;20189;-76
2021/06/09 05:54:57;;;;;;;8.95;7.55;;;;;24.60;102058.00;;;;5109136;28;20194;-76
2021/06/09 05:57:24;;;;;;;9.90;6.80;;;;;24.60;102052.00;;;;5104554;28;20194;-76
2021/06/09 05:59:50;;;;;;;8.88;7.95;;;;;24.70;102055.00;;;;5104181;28;20255;-76
2021/06/09 06:02:17;;;;;;;8.48;7.65;;;;;24.70;102062.00;;;;5107863;28;20182;-76
2021/06/09 06:04:46;;;;;;;10.20;7.70;;;;;24.80;102059.00;;;;5103399;28;20193;-76
2021/06/09 06:07:14;;;;;;;7.80;6.97;;;;;24.80;102055.00;;;;5104911;28;20225;-76
2021/06/09 06:09:41;;;;;;;8.65;7.38;;;;;24.90;102062.00;;;;5108248;28;20198;-75
2021/06/09 06:12:09;;;;;;;9.30;7.25;;;;;25.00;102057.00;;;;5104098;28;20201;-76
2021/06/09 06:14:36;;;;;;;8.73;7.53;;;;;25.00;102059.00;;;;5104063;28;20620;-77
2021/06/09 06:17:03;;;;;;;10.20;7.43;;;;;25.10;102060.00;;;;5109419;28;20201;-77
2021/06/09 06:19:39;;;;;;;9.50;7.38;;;;;25.10;102061.00;;;;5107629;28;20202;-77
2021/06/09 06:22:10;;;;;;;9.60;7.03;;;;;25.20;102065.00;;;;5109934;28;20233;-76
2021/06/09 06:24:43;;;;;;;9.38;7.45;;;;;25.20;102068.00;;;;5104725;28;20198;-76
2021/06/09 06:27:12;;;;;;;9.57;7.38;;;;;25.40;102061.00;;;;5099886;27;20205;-76
2021/06/09 06:29:39;;;;;;;8.98;8.05;;;;;25.40;102060.00;;;;5110093;28;20225;-75
2021/06/09 06:32:07;;;;;;;10.75;7.95;;;;;25.50;102062.00;;;;5109528;27;20189;-75
2021/06/09 06:34:39;;;;;;;14.13;9.10;;;;;25.60;102069.00;;;;5106621;28;20297;-75
2021/06/09 06:37:07;;;;;;;11.43;9.23;;;;;25.60;102064.00;;;;5102595;28;20198;-76
2021/06/09 06:39:36;;;;;;;12.70;9.27;;;;;25.70;102063.00;;;;5104890;28;20198;-75
2021/06/09 06:42:05;;;;;;;13.05;9.32;;;;;25.70;102064.00;;;;5100719;28;20218;-79
2021/06/09 06:44:34;;;;;;;11.50;9.38;;;;;25.80;102065.00;;;;5101826;28;20203;-78
2021/06/09 06:47:01;;;;;;;11.88;10.10;;;;;25.90;102073.00;;;;5102127;28;20308;-77
2021/06/09 06:49:29;;;;;;;9.40;8.45;;;;;25.90;102068.00;;;;5101732;28;20642;-76
2021/06/09 06:51:56;;;;;;;10.40;9.40;;;;;26.00;102065.00;;;;5107167;28;20186;-77
2021/06/09 06:54:24;;;;;;;12.90;9.15;;;;;26.00;102067.00;;;;5105844;28;20202;-76
2021/06/09 06:56:52;;;;;;;10.30;9.20;;;;;26.10;102060.00;;;;5102548;27;20198;-78
2021/06/09 06:59:21;;;;;;;9.48;8.48;;;;;26.10;102063.00;;;;5104816;28;20197;-78
2021/06/09 07:01:48;;;;;;;12.52;9.38;;;;;26.20;102061.00;;;;5102765;28;20198;-79
2021/06/09 07:04:17;;;;;;;12.18;10.85;;;;;26.20;102062.00;;;;5105991;28;21019;-79
2021/06/09 07:06:46;;;;;;;10.75;9.63;;;;;26.30;102060.00;;;;5101584;28;20221;-79
2021/06/09 07:09:14;;;;;;;11.85;10.30;;;;;26.30;102062.00;;;;5103728;28;20198;-78
2021/06/09 07:11:44;;;;;;;11.55;10.35;;;;;26.40;102059.00;;;;5103961;27;20725;-78
2021/06/09 07:14:11;;;;;;;12.02;10.75;;;;;26.50;102069.00;;;;5102164;28;20267;-78
2021/06/09 07:16:41;;;;;;;14.10;10.90;;;;;26.50;102067.00;;;;5092781;28;20198;-78
2021/06/09 07:19:08;;;;;;;12.90;10.63;;;;;26.60;102068.00;;;;5105266;28;20793;-78
2021/06/09 07:21:35;;;;;;;13.25;10.57;;;;;26.70;102069.00;;;;5104092;28;20198;-79
2021/06/09 07:24:04;;;;;;;14.18;10.18;;;;;26.80;102069.00;;;;5104093;28;20827;-78
2021/06/09 07:26:35;;;;;;;10.45;8.77;;;;;26.90;102072.00;;;;5099730;28;20217;-79
2021/06/09 07:29:03;;;;;;;11.05;9.20;;;;;27.00;102070.00;;;;5097825;28;20663;-78
2021/06/09 07:31:34;;;;;;;11.77;10.57;;;;;27.00;102071.00;;;;5097799;28;20744;-78
2021/06/09 07:34:04;;;;;;;11.45;9.93;;;;;27.10;102071.00;;;;5099640;28;20318;-78
2021/06/09 07:36:34;;;;;;;10.43;9.18;;;;;27.10;102072.00;;;;5100903;28;20193;-79
2021/06/09 07:39:06;;;;;;;11.38;8.50;;;;;27.20;102078.00;;;;5097360;28;20193;-78
2021/06/09 07:41:33;;;;;;;12.32;10.23;;;;;27.30;102074.00;;;;5100199;28;20225;-79
2021/06/09 07:44:04;;;;;;;11.40;10.20;;;;;27.30;102077.00;;;;5095784;28;20201;-77
2021/06/09 07:46:33;;;;;;;10.75;9.40;;;;;27.40;102075.00;;;;5102497;28;20197;-79
2021/06/09 07:49:06;;;;;;;10.88;9.63;;;;;27.50;102075.00;;;;5099980;28;20205;-78
2021/06/09 07:51:33;;;;;;;10.23;9.18;;;;;27.60;102078.00;;;;5101808;28;20798;-79
2021/06/09 07:54:01;;;;;;;12.27;9.38;;;;;27.70;102076.00;;;;5101986;28;20198;-79
2021/06/09 07:56:30;;;;;;;10.25;9.20;;;;;27.80;102085.00;;;;5100922;28;20202;-78
2021/06/09 07:58:58;;;;;;;10.65;9.55;;;;;27.80;102086.00;;;;5095049;28;20189;-78
2021/06/09 08:01:25;;;;;;;11.52;9.18;;;;;27.90;102082.00;;;;5100824;28;20193;-79
2021/06/09 08:03:52;;;;;;;11.35;10.02;;;;;28.00;102085.00;;;;5101863;28;20193;-79
2021/06/09 08:06:22;;;;;;;11.68;9.90;;;;;28.10;102083.00;;;;5101422;28;20201;-78
2021/06/09 08:08:48;;;;;;;11.05;9.95;;;;;28.30;102088.00;;;;5101397;28;20671;-79
2021/06/09 08:11:15;;;;;;;10.98;9.70;;;;;28.40;102083.00;;;;5104925;28;20194;-78
2021/06/09 08:13:46;;;;;;;11.77;9.07;;;;;28.50;102090.00;;;;5101712;28;20206;-79
2021/06/09 08:16:14;;;;;;;10.82;8.60;;;;;28.60;102083.00;;;;5104554;28;20205;-79
2021/06/09 08:18:42;;;;;;;10.93;9.75;;;;;28.80;102076.00;;;;5105214;28;20576;-78
2021/06/09 08:21:12;;;;;;;13.23;10.02;;;;;28.80;102076.00;;;;5102466;28;20197;-79
2021/06/09 08:23:42;;;;;;;9.68;8.65;;;;;29.00;102079.00;;;;5103180;28;20251;-79
2021/06/09 08:26:10;;;;;;;9.43;8.45;;;;;29.10;102085.00;;;;5106155;28;20225;-79
2021/06/09 08:28:38;;;;;;;11.40;9.30;;;;;29.30;102086.00;;;;5095022;28;20232;-78
2021/06/09 08:31:06;;;;;;;10.32;9.20;;;;;29.40;102085.00;;;;5095642;28;20240;-79
2021/06/09 08:33:35;;;;;;;9.77;8.70;;;;;29.50;102086.00;;;;5095179;28;20248;-79
2021/06/09 08:36:02;;;;;;;10.25;9.05;;;;;29.60;102089.00;;;;5107887;28;20203;-78
2021/06/09 08:38:29;;;;;;;8.75;7.85;;;;;29.70;102083.00;;;;5107471;28;20576;-78
2021/06/09 08:40:57;;;;;;;9.73;8.02;;;;;29.80;102085.00;;;;5105411;28;20197;-79
2021/06/09 08:43:25;;;;;;;9.13;8.15;;;;;29.90;102086.00;;;;5108117;28;20193;-79
2021/06/09 08:45:52;;;;;;;8.25;7.30;;;;;30.00;102091.00;;;;5108244;28;20205;-79
2021/06/09 08:48:19;;;;;;;8.60;7.30;;;;;30.10;102089.00;;;;5097746;28;20748;-78
2021/06/09 08:50:48;;;;;;;10.65;7.65;;;;;30.20;102087.00;;;;5098791;28;20250;-79
2021/06/09 08:53:19;;;;;;;20.00;8.00;;;;;30.30;102095.00;;;;5101978;28;20303;-78
2021/06/09 08:55:46;;;;;;;8.57;7.60;;;;;30.40;102088.00;;;;5107453;28;20608;-79
2021/06/09 08:58:15;;;;;;;7.70;6.95;;;;;30.50;102093.00;;;;5108278;28;20193;-78
2021/06/09 09:00:43;;;;;;;9.25;7.38;;;;;30.70;102091.00;;;;5107682;28;20292;-79
2021/06/09 09:03:11;;;;;;;7.95;7.13;;;;;30.70;102088.00;;;;5107961;28;20205;-78
2021/06/09 09:05:38;;;;;;;8.23;7.38;;;;;30.80;102095.00;;;;5108200;28;20204;-78
2021/06/09 09:08:06;;;;;;;7.38;6.70;;;;;30.90;102094.00;;;;5105538;28;20291;-78
2021/06/09 09:10:33;;;;;;;10.88;8.30;;;;;31.00;102090.00;;;;5098381;28;20205;-78
2021/06/09 09:13:01;;;;;;;8.43;6.50;;;;;31.10;102098.00;;;;5103845;28;20668;-78
2021/06/09 09:15:29;;;;;;;9.57;7.32;;;;;31.20;102090.00;;;;5101265;28;20210;-78
2021/06/09 09:17:57;;;;;;;7.80;6.38;;;;;31.30;102097.00;;;;5106265;28;20197;-78
2021/06/09 09:20:26;;;;;;;8.88;7.55;;;;;31.30;102090.00;;;;5104129;28;20205;-78
2021/06/09 09:22:57;;;;;;;8.93;7.03;;;;;31.40;102096.00;;;;5101838;28;20247;-78
2021/06/09 09:25:27;;;;;;;7.90;6.32;;;;;31.50;102101.00;;;;5107918;28;20342;-79
2021/06/09 09:27:56;;;;;;;6.88;6.22;;;;;31.60;102099.00;;;;5091135;28;20249;-78
2021/06/09 09:30:25;;;;;;;7.88;6.60;;;;;31.60;102102.00;;;;5111734;28;20567;-76
2021/06/09 09:33:06;;;;;;;8.02;6.28;;;;;31.60;102102.00;;;;5108986;28;20718;-77
2021/06/09 09:35:35;;;;;;;7.95;7.18;;;;;31.70;102106.00;;;;5112166;28;20205;-77
2021/06/09 09:38:13;;;;;;;7.43;6.70;;;;;31.60;102102.00;;;;5111750;28;20580;-76
2021/06/09 09:40:55;;;;;;;8.57;6.15;;;;;31.80;102107.00;;;;5098430;28;20201;-77
2021/06/09 09:43:39;;;;;;;6.45;5.63;;;;;31.90;102106.00;;;;5110831;28;20197;-76
2021/06/09 09:46:10;;;;;;;5.00;4.53;;;;;31.90;102105.00;;;;5110555;28;20209;-76
2021/06/09 09:48:41;;;;;;;8.07;6.35;;;;;32.10;102105.00;;;;5109947;27;20271;-76
2021/06/09 09:51:10;;;;;;;8.35;7.22;;;;;32.10;102113.00;;;;5111132;28;20201;-76
2021/06/09 09:53:36;;;;;;;6.60;5.68;;;;;32.20;102107.00;;;;5107833;28;20206;-76
2021/06/09 09:56:09;;;;;;;7.75;6.50;;;;;32.20;102109.00;;;;5109547;28;20190;-76
2021/06/09 09:58:38;;;;;;;8.52;7.60;;;;;32.30;102111.00;;;;5111069;28;20662;-76
2021/06/09 10:01:19;;;;;;;6.88;6.13;;;;;32.20;102111.00;;;;5104497;28;20193;-76
2021/06/09 10:03:49;;;;;;;8.60;7.75;;;;;32.30;102106.00;;;;5109294;28;21653;-76
2021/06/09 10:06:31;;;;;;;9.18;7.10;;;;;32.30;102105.00;;;;5096551;28;20212;-76
2021/06/09 10:09:06;;;;;;;7.20;6.55;;;;;32.50;102104.00;;;;5109438;28;20213;-76
2021/06/09 10:11:33;;;;;;;9.23;8.32;;;;;32.50;102111.00;;;;5103313;28;20197;-76
2021/06/09 10:13:59;;;;;;;8.80;7.35;;;;;32.60;102110.00;;;;5109826;28;20536;-79
2021/06/09 10:16:32;;;;;;;8.90;8.02;;;;;32.60;102110.00;;;;5110462;28;20251;-77
2021/06/09 10:19:07;;;;;;;9.25;7.40;;;;;32.60;102100.00;;;;5107810;28;20205;-77
2021/06/09 10:21:44;;;;;;;13.88;8.90;;;;;32.60;102108.00;;;;5100922;28;20254;-78
2021/06/09 10:24:12;;;;;;;8.02;6.88;;;;;32.60;102101.00;;;;5106945;28;20245;-77
2021/06/09 10:26:41;;;;;;;10.38;8.65;;;;;32.60;102099.00;;;;5098365;28;20190;-77
2021/06/09 10:29:12;;;;;;;9.55;6.85;;;;;32.60;102098.00;;;;5101833;28;20201;-76
2021/06/09 10:31:43;;;;;;;11.13;7.88;;;;;32.70;102108.00;;;;5109202;28;20193;-77
2021/06/09 10:34:11;;;;;;;8.43;7.20;;;;;32.70;102099.00;;;;5099656;28;20695;-76
2021/06/09 10:36:45;;;;;;;9.40;8.00;;;;;32.80;102104.00;;;;5104308;28;20193;-76
2021/06/09 10:39:12;;;;;;;8.98;7.70;;;;;32.80;102109.00;;;;5104280;28;20510;-76
2021/06/09 10:41:44;;;;;;;9.90;8.57;;;;;32.80;102103.00;;;;5110021;28;20221;-76
2021/06/09 10:44:12;;;;;;;9.23;7.97;;;;;32.80;102105.00;;;;5106803;28;20201;-76
2021/06/09 10:46:43;;;;;;;11.38;9.07;;;;;32.90;102101.00;;;;5106898;28;20224;-76
2021/06/09 10:49:15;;;;;;;10.30;9.10;;;;;32.80;102095.00;;;;5107680;28;20292;-76
2021/06/09 10:51:41;;;;;;;8.35;7.55;;;;;32.90;102105.00;;;;5107310;28;20214;-77
2021/06/09 10:54:13;;;;;;;9.63;8.73;;;;;32.90;102105.00;;;;5106796;28;20253;-77
2021/06/09 10:56:42;;;;;;;10.98;9.63;;;;;32.90;102103.00;;;;5097753;28;20197;-76
2021/06/09 10:59:11;;;;;;;9.43;8.50;;;;;32.80;102097.00;;;;5099458;28;20197;-76
2021/06/09 11:01:39;;;;;;;10.23;9.15;;;;;32.90;102095.00;;;;5107299;28;20201;-76
2021/06/09 11:04:06;;;;;;;10.05;9.07;;;;;32.90;102096.00;;;;5108773;28;20193;-76
2021/06/09 11:06:49;;;;;;;10.85;9.45;;;;;32.80;102092.00;;;;5109580;28;20189;-76
2021/06/09 11:09:22;;;;;;;11.10;10.02;;;;;32.80;102102.00;;;;5100285;28;20204;-76
2021/06/09 11:12:11;;;;;;;10.40;9.30;;;;;32.90;102095.00;;;;5105942;28;20193;-77
2021/06/09 11:14:47;;;;;;;10.77;9.07;;;;;32.80;102094.00;;;;5108551;27;20269;-76
2021/06/09 11:17:14;;;;;;;9.35;8.30;;;;;32.90;102095.00;;;;5100407;28;20205;-77
2021/06/09 11:19:44;;;;;;;11.00;8.23;;;;;32.90;102095.00;;;;5103342;28;20667;-77
2021/06/09 11:22:24;;;;;;;11.73;10.23;;;;;32.80;102091.00;;;;5106200;28;20234;-77
2021/06/09 11:25:26;;;;;;;7.97;7.15;;;;;32.80;102096.00;;;;5102805;28;20576;-78
2021/06/09 11:27:55;;;;;;;14.07;10.95;;;;;32.80;102098.00;;;;5107051;28;20216;-77
2021/06/09 11:30:56;;;;;;;10.35;9.30;;;;;32.70;102099.00;;;;5106984;28;20771;-77
2021/06/09 11:33:35;;;;;;;9.88;8.93;;;;;32.70;102094.00;;;;5102709;28;20230;-76
2021/06/09 11:36:04;;;;;;;12.40;10.63;;;;;32.80;102100.00;;;;5102219;28;20185;-77
2021/06/09 11:38:33;;;;;;;13.30;12.00;;;;;32.80;102100.00;;;;5109250;28;20683;-77
2021/06/09 11:41:02;;;;;;;10.70;9.65;;;;;32.80;102094.00;;;;5104178;28;20208;-77
2021/06/09 11:43:34;;;;;;;12.27;10.98;;;;;32.80;102095.00;;;;5109369;28;20197;-78
2021/06/09 11:46:04;;;;;;;13.45;11.88;;;;;32.80;102096.00;;;;5108236;28;20566;-77
2021/06/09 11:48:32;;;;;;;14.73;10.70;;;;;32.70;102085.00;;;;5107999;28;20263;-76
2021/06/09 11:51:20;;;;;;;10.90;9.70;;;;;32.60;102096.00;;;;5108957;28;20201;-77
2021/06/09 11:53:50;;;;;;;11.10;10.10;;;;;32.70;102088.00;;;;5106142;28;20212;-77
2021/06/09 11:56:19;;;;;;;10.63;9.65;;;;;32.70;102083.00;;;;5092277;28;20570;-77
2021/06/09 11:58:48;;;;;;;11.10;10.00;;;;;32.70;102081.00;;;;5108810;28;20552;-77
2021/06/09 12:01:16;;;;;;;12.70;10.75;;;;;32.70;102079.00;;;;5107372;28;20193;-76
2021/06/09 12:03:43;;;;;;;11.95;10.75;;;;;32.70;102082.00;;;;5108595;28;20302;-77
2021/06/09 12:06:12;;;;;;;12.40;11.18;;;;;32.70;102079.00;;;;5107433;28;20193;-77
2021/06/09 12:08:39;;;;;;;12.73;9.73;;;;;32.60;102078.00;;;;5107316;28;20276;-77
2021/06/09 12:11:07;;;;;;;11.75;10.27;;;;;32.60;102074.00;;;;5105069;28;20201;-78
2021/06/09 12:13:34;;;;;;;14.18;10.70;;;;;32.60;102072.00;;;;5108014;28;20451;-77
2021/06/09 12:16:05;;;;;;;9.48;8.52;;;;;32.60;102071.00;;;;5107267;28;20212;-77